Time,TemperatureF,DewpointF,PressureIn,WindDirection,WindDirectionDegrees,WindSpeedMPH,WindSpeedGustMPH,Humidity,HourlyPrecipIn,Conditions,Clouds,dailyrainin,SolarRadiationWatts/m^2,SoftwareType,DateUTC
2013-04-04 00:03:00,70.0,58.0,-100.00,ENE,72,3.0,6.0,65,0.00,,,0.00,0.000000,,2013-04-04 10:03:00,
2013-04-04 00:12:00,70.0,58.0,-100.00,ENE,72,3.0,6.0,65,0.00,,,0.00,0.000000,,2013-04-04 10:12:00,
2013-04-04 00:43:00,69.0,55.0,-100.00,East,81,3.0,8.0,62,0.00,,,0.00,0.000000,,2013-04-04 10:43:00,
2013-04-04 00:53:00,69.0,55.0,-100.00,East,81,3.0,8.0,62,0.00,,,0.00,0.000000,,2013-04-04 10:53:00,
2013-04-04 01:02:00,69.0,55.0,-100.00,East,81,3.0,8.0,62,0.00,,,0.00,0.000000,,2013-04-04 11:02:00,
2013-04-04 01:12:00,69.0,55.0,-100.00,East,81,3.0,8.0,62,0.00,,,0.00,0.000000,,2013-04-04 11:12:00,
2013-04-04 01:21:00,69.0,55.0,-100.00,East,81,3.0,8.0,62,0.00,,,0.00,0.000000,,2013-04-04 11:21:00,
2013-04-04 01:43:00,68.0,53.0,-100.00,ENE,72,4.0,8.0,59,0.00,,,0.00,0.000000,,2013-04-04 11:43:00,
2013-04-04 01:53:00,68.0,53.0,-100.00,ENE,72,4.0,8.0,59,0.00,,,0.00,0.000000,,2013-04-04 11:53:00,
2013-04-04 02:02:00,68.0,53.0,-100.00,ENE,72,4.0,8.0,59,0.00,,,0.00,0.000000,,2013-04-04 12:02:00,
2013-04-04 02:12:00,68.0,53.0,-100.00,ENE,72,4.0,8.0,59,0.00,,,0.00,0.000000,,2013-04-04 12:12:00,
2013-04-04 02:21:00,68.0,53.0,-100.00,ENE,72,4.0,8.0,59,0.00,,,0.00,0.000000,,2013-04-04 12:21:00,
2013-04-04 02:43:00,68.0,52.0,-100.00,East,82,4.0,8.0,56,0.00,,,0.00,0.000000,,2013-04-04 12:43:00,
2013-04-04 02:52:00,68.0,52.0,-100.00,East,82,4.0,8.0,56,0.00,,,0.00,0.000000,,2013-04-04 12:52:00,
2013-04-04 03:02:00,68.0,52.0,-100.00,East,82,4.0,8.0,56,0.00,,,0.00,0.000000,,2013-04-04 13:02:00,
2013-04-04 03:12:00,68.0,52.0,-100.00,East,82,4.0,8.0,56,0.00,,,0.00,0.000000,,2013-04-04 13:12:00,
2013-04-04 03:21:00,68.0,52.0,-100.00,East,82,4.0,8.0,56,0.00,,,0.00,0.000000,,2013-04-04 13:21:00,
2013-04-04 03:43:00,68.0,51.0,-100.00,ENE,77,3.0,6.0,55,0.00,,,0.00,0.000000,,2013-04-04 13:43:00,
2013-04-04 03:52:00,68.0,51.0,-100.00,ENE,77,3.0,6.0,55,0.00,,,0.00,0.000000,,2013-04-04 13:52:00,
2013-04-04 04:02:00,68.0,51.0,-100.00,ENE,77,3.0,6.0,55,0.00,,,0.00,0.000000,,2013-04-04 14:02:00,
2013-04-04 04:12:00,68.0,51.0,-100.00,ENE,77,3.0,6.0,55,0.00,,,0.00,0.000000,,2013-04-04 14:12:00,
2013-04-04 04:21:00,68.0,51.0,-100.00,ENE,77,3.0,6.0,55,0.00,,,0.00,0.000000,,2013-04-04 14:21:00,
2013-04-04 04:22:00,67.0,51.0,-100.00,East,91,3.0,8.0,57,0.00,,,0.00,0.000000,,2013-04-04 14:22:00,
2013-04-04 04:43:00,67.0,51.0,-100.00,East,91,3.0,8.0,57,0.00,,,0.00,0.000000,,2013-04-04 14:43:00,
2013-04-04 04:52:00,67.0,51.0,-100.00,East,91,3.0,8.0,57,0.00,,,0.00,0.000000,,2013-04-04 14:52:00,
2013-04-04 05:02:00,67.0,51.0,-100.00,East,91,3.0,8.0,57,0.00,,,0.00,0.000000,,2013-04-04 15:02:00,
2013-04-04 05:12:00,67.0,51.0,-100.00,East,91,3.0,8.0,57,0.00,,,0.00,0.000000,,2013-04-04 15:12:00,
2013-04-04 05:22:00,66.0,51.0,-100.00,East,86,2.0,6.0,58,0.00,,,0.00,0.000000,,2013-04-04 15:22:00,
2013-04-04 05:43:00,66.0,51.0,-100.00,East,86,2.0,6.0,58,0.00,,,0.00,0.000000,,2013-04-04 15:43:00,
2013-04-04 05:53:00,66.0,51.0,-100.00,East,86,2.0,6.0,58,0.00,,,0.00,0.000000,,2013-04-04 15:53:00,
2013-04-04 06:03:00,66.0,51.0,-100.00,East,86,2.0,6.0,58,0.00,,,0.00,0.000000,,2013-04-04 16:03:00,
2013-04-04 06:12:00,66.0,51.0,-100.00,East,86,2.0,6.0,58,0.00,,,0.00,0.000000,,2013-04-04 16:12:00,
2013-04-04 06:22:00,66.0,50.0,-100.00,East,83,3.0,6.0,57,0.00,,,0.00,0.000000,,2013-04-04 16:22:00,
2013-04-04 06:43:00,66.0,50.0,-100.00,East,83,3.0,6.0,57,0.00,,,0.00,0.000000,,2013-04-04 16:43:00,
2013-04-04 06:53:00,66.0,50.0,-100.00,East,83,3.0,6.0,57,0.00,,,0.00,0.000000,,2013-04-04 16:53:00,
2013-04-04 07:02:00,66.0,50.0,-100.00,East,83,3.0,6.0,57,0.00,,,0.00,0.000000,,2013-04-04 17:02:00,
2013-04-04 07:12:00,66.0,50.0,-100.00,East,83,3.0,6.0,57,0.00,,,0.00,0.000000,,2013-04-04 17:12:00,
2013-04-04 07:22:00,66.0,48.0,-100.00,East,86,3.0,6.0,52,0.00,,,0.00,23.000000,,2013-04-04 17:22:00,
2013-04-04 07:43:00,66.0,48.0,-100.00,East,86,3.0,6.0,52,0.00,,,0.00,23.000000,,2013-04-04 17:43:00,
2013-04-04 07:52:00,66.0,48.0,-100.00,East,86,3.0,6.0,52,0.00,,,0.00,23.000000,,2013-04-04 17:52:00,
2013-04-04 08:02:00,66.0,48.0,-100.00,East,86,3.0,6.0,52,0.00,,,0.00,23.000000,,2013-04-04 18:02:00,
2013-04-04 08:12:00,66.0,48.0,-100.00,East,86,3.0,6.0,52,0.00,,,0.00,23.000000,,2013-04-04 18:12:00,
2013-04-04 08:43:00,72.0,50.0,-100.00,East,87,2.0,5.0,46,0.00,,,0.00,204.000000,,2013-04-04 18:43:00,
2013-04-04 08:52:00,72.0,50.0,-100.00,East,87,2.0,5.0,46,0.00,,,0.00,204.000000,,2013-04-04 18:52:00,
2013-04-04 09:02:00,72.0,50.0,-100.00,East,87,2.0,5.0,46,0.00,,,0.00,204.000000,,2013-04-04 19:02:00,
2013-04-04 09:12:00,72.0,50.0,-100.00,East,87,2.0,5.0,46,0.00,,,0.00,204.000000,,2013-04-04 19:12:00,
2013-04-04 09:21:00,72.0,50.0,-100.00,East,87,2.0,5.0,46,0.00,,,0.00,204.000000,,2013-04-04 19:21:00,
2013-04-04 09:22:00,76.0,58.0,-100.00,WSW,252,2.0,5.0,53,0.00,,,0.00,427.000000,,2013-04-04 19:22:00,
2013-04-04 09:43:00,76.0,58.0,-100.00,WSW,252,2.0,5.0,53,0.00,,,0.00,427.000000,,2013-04-04 19:43:00,
2013-04-04 09:52:00,76.0,58.0,-100.00,WSW,252,2.0,5.0,53,0.00,,,0.00,427.000000,,2013-04-04 19:52:00,
2013-04-04 10:03:00,76.0,58.0,-100.00,WSW,252,2.0,5.0,53,0.00,,,0.00,427.000000,,2013-04-04 20:03:00,
2013-04-04 10:12:00,76.0,58.0,-100.00,WSW,252,2.0,5.0,53,0.00,,,0.00,427.000000,,2013-04-04 20:12:00,
2013-04-04 10:22:00,77.0,57.0,-100.00,West,264,4.0,8.0,50,0.00,,,0.00,646.000000,,2013-04-04 20:22:00,
2013-04-04 10:42:00,77.0,57.0,-100.00,West,264,4.0,8.0,50,0.00,,,0.00,646.000000,,2013-04-04 20:42:00,
2013-04-04 10:53:00,77.0,57.0,-100.00,West,264,4.0,8.0,50,0.00,,,0.00,646.000000,,2013-04-04 20:53:00,
2013-04-04 11:02:00,77.0,57.0,-100.00,West,264,4.0,8.0,50,0.00,,,0.00,646.000000,,2013-04-04 21:02:00,
2013-04-04 11:12:00,77.0,57.0,-100.00,West,264,4.0,8.0,50,0.00,,,0.00,646.000000,,2013-04-04 21:12:00,
2013-04-04 11:22:00,78.0,57.0,-100.00,West,264,4.0,8.0,48,0.00,,,0.00,807.000000,,2013-04-04 21:22:00,
2013-04-04 11:43:00,78.0,57.0,-100.00,West,264,4.0,8.0,48,0.00,,,0.00,807.000000,,2013-04-04 21:43:00,
2013-04-04 11:53:00,78.0,57.0,-100.00,West,264,4.0,8.0,48,0.00,,,0.00,807.000000,,2013-04-04 21:53:00,
2013-04-04 12:03:00,78.0,57.0,-100.00,West,264,4.0,8.0,48,0.00,,,0.00,807.000000,,2013-04-04 22:03:00,
2013-04-04 12:12:00,78.0,57.0,-100.00,West,264,4.0,8.0,48,0.00,,,0.00,807.000000,,2013-04-04 22:12:00,
2013-04-04 12:43:00,79.0,58.0,-100.00,WSW,252,4.0,9.0,49,0.00,,,0.00,916.000000,,2013-04-04 22:43:00,
2013-04-04 12:53:00,79.0,58.0,-100.00,WSW,252,4.0,9.0,49,0.00,,,0.00,916.000000,,2013-04-04 22:53:00,
2013-04-04 13:02:00,79.0,58.0,-100.00,WSW,252,4.0,9.0,49,0.00,,,0.00,916.000000,,2013-04-04 23:02:00,
2013-04-04 13:12:00,79.0,58.0,-100.00,WSW,252,4.0,9.0,49,0.00,,,0.00,916.000000,,2013-04-04 23:12:00,
2013-04-04 13:21:00,79.0,58.0,-100.00,WSW,252,4.0,9.0,49,0.00,,,0.00,916.000000,,2013-04-04 23:21:00,
2013-04-04 13:42:00,79.0,59.0,-100.00,WSW,238,4.0,9.0,50,0.00,,,0.00,941.000000,,2013-04-04 23:42:00,
2013-04-04 13:52:00,79.0,59.0,-100.00,WSW,238,4.0,9.0,50,0.00,,,0.00,941.000000,,2013-04-04 23:52:00,
2013-04-04 14:02:00,79.0,59.0,-100.00,WSW,238,4.0,9.0,50,0.00,,,0.00,941.000000,,2013-04-05 00:02:00,
2013-04-04 14:12:00,79.0,59.0,-100.00,WSW,238,4.0,9.0,50,0.00,,,0.00,941.000000,,2013-04-05 00:12:00,
2013-04-04 14:21:00,79.0,59.0,-100.00,WSW,238,4.0,9.0,50,0.00,,,0.00,941.000000,,2013-04-05 00:21:00,
2013-04-04 14:22:00,80.0,59.0,-100.00,West,263,4.0,8.0,48,0.00,,,0.00,903.000000,,2013-04-05 00:22:00,
2013-04-04 14:42:00,80.0,59.0,-100.00,West,263,4.0,8.0,48,0.00,,,0.00,903.000000,,2013-04-05 00:42:00,
2013-04-04 14:52:00,80.0,59.0,-100.00,West,263,4.0,8.0,48,0.00,,,0.00,903.000000,,2013-04-05 00:52:00,
2013-04-04 15:02:00,80.0,59.0,-100.00,West,263,4.0,8.0,48,0.00,,,0.00,903.000000,,2013-04-05 01:02:00,
2013-04-04 15:12:00,80.0,59.0,-100.00,West,263,4.0,8.0,48,0.00,,,0.00,903.000000,,2013-04-05 01:12:00,
2013-04-04 15:22:00,80.0,60.0,-100.00,West,267,4.0,10.0,51,0.00,,,0.00,794.000000,,2013-04-05 01:22:00,
2013-04-04 15:42:00,80.0,60.0,-100.00,West,267,4.0,10.0,51,0.00,,,0.00,794.000000,,2013-04-05 01:42:00,
2013-04-04 15:53:00,80.0,60.0,-100.00,West,267,4.0,10.0,51,0.00,,,0.00,794.000000,,2013-04-05 01:53:00,
2013-04-04 16:02:00,80.0,60.0,-100.00,West,267,4.0,10.0,51,0.00,,,0.00,794.000000,,2013-04-05 02:02:00,
2013-04-04 16:12:00,80.0,60.0,-100.00,West,267,4.0,10.0,51,0.00,,,0.00,794.000000,,2013-04-05 02:12:00,
2013-04-04 16:22:00,80.0,59.0,-100.00,West,270,4.0,9.0,48,0.00,,,0.00,613.000000,,2013-04-05 02:22:00,
2013-04-04 16:42:00,80.0,59.0,-100.00,West,270,4.0,9.0,48,0.00,,,0.00,613.000000,,2013-04-05 02:42:00,
2013-04-04 16:52:00,80.0,59.0,-100.00,West,270,4.0,9.0,48,0.00,,,0.00,613.000000,,2013-04-05 02:52:00,
2013-04-04 17:02:00,80.0,59.0,-100.00,West,270,4.0,9.0,48,0.00,,,0.00,613.000000,,2013-04-05 03:02:00,
2013-04-04 17:12:00,80.0,59.0,-100.00,West,270,4.0,9.0,48,0.00,,,0.00,613.000000,,2013-04-05 03:12:00,
2013-04-04 17:22:00,79.0,60.0,-100.00,West,269,4.0,8.0,53,0.00,,,0.00,416.000000,,2013-04-05 03:22:00,
2013-04-04 17:43:00,79.0,60.0,-100.00,West,269,4.0,8.0,53,0.00,,,0.00,416.000000,,2013-04-05 03:43:00,
2013-04-04 17:53:00,79.0,60.0,-100.00,West,269,4.0,8.0,53,0.00,,,0.00,416.000000,,2013-04-05 03:53:00,
2013-04-04 18:02:00,79.0,60.0,-100.00,West,269,4.0,8.0,53,0.00,,,0.00,416.000000,,2013-04-05 04:02:00,
2013-04-04 18:12:00,79.0,60.0,-100.00,West,269,4.0,8.0,53,0.00,,,0.00,416.000000,,2013-04-05 04:12:00,
2013-04-04 18:42:00,79.0,60.0,-100.00,West,269,3.0,6.0,52,0.00,,,0.00,198.000000,,2013-04-05 04:42:00,
2013-04-04 18:52:00,79.0,60.0,-100.00,West,269,3.0,6.0,52,0.00,,,0.00,198.000000,,2013-04-05 04:52:00,
2013-04-04 19:02:00,79.0,60.0,-100.00,West,269,3.0,6.0,52,0.00,,,0.00,198.000000,,2013-04-05 05:02:00,
2013-04-04 19:12:00,79.0,60.0,-100.00,West,269,3.0,6.0,52,0.00,,,0.00,198.000000,,2013-04-05 05:12:00,
2013-04-04 19:21:00,79.0,60.0,-100.00,West,269,3.0,6.0,52,0.00,,,0.00,198.000000,,2013-04-05 05:21:00,
2013-04-04 19:22:00,76.0,60.0,-100.00,West,274,2.0,6.0,57,0.00,,,0.00,25.000000,,2013-04-05 05:22:00,
2013-04-04 19:52:00,76.0,60.0,-100.00,West,274,2.0,6.0,57,0.00,,,0.00,25.000000,,2013-04-05 05:52:00,
2013-04-04 20:02:00,76.0,60.0,-100.00,West,274,2.0,6.0,57,0.00,,,0.00,25.000000,,2013-04-05 06:02:00,
2013-04-04 20:12:00,76.0,60.0,-100.00,West,274,2.0,6.0,57,0.00,,,0.00,25.000000,,2013-04-05 06:12:00,
2013-04-04 20:22:00,75.0,61.0,-100.00,NNW,337,1.0,4.0,61,0.00,,,0.00,0.000000,,2013-04-05 06:22:00,
2013-04-04 20:42:00,75.0,61.0,-100.00,NNW,337,1.0,4.0,61,0.00,,,0.00,0.000000,,2013-04-05 06:42:00,
2013-04-04 20:52:00,75.0,61.0,-100.00,NNW,337,1.0,4.0,61,0.00,,,0.00,0.000000,,2013-04-05 06:52:00,
2013-04-04 21:02:00,75.0,61.0,-100.00,NNW,337,1.0,4.0,61,0.00,,,0.00,0.000000,,2013-04-05 07:02:00,
2013-04-04 21:12:00,75.0,61.0,-100.00,NNW,337,1.0,4.0,61,0.00,,,0.00,0.000000,,2013-04-05 07:12:00,
2013-04-04 21:42:00,73.0,59.0,-100.00,East,94,2.0,5.0,62,0.00,,,0.00,0.000000,,2013-04-05 07:42:00,
2013-04-04 21:52:00,73.0,59.0,-100.00,East,94,2.0,5.0,62,0.00,,,0.00,0.000000,,2013-04-05 07:52:00,
2013-04-04 22:02:00,73.0,59.0,-100.00,East,94,2.0,5.0,62,0.00,,,0.00,0.000000,,2013-04-05 08:02:00,
2013-04-04 22:12:00,73.0,59.0,-100.00,East,94,2.0,5.0,62,0.00,,,0.00,0.000000,,2013-04-05 08:12:00,
2013-04-04 22:21:00,73.0,59.0,-100.00,East,94,2.0,5.0,62,0.00,,,0.00,0.000000,,2013-04-05 08:21:00,
2013-04-04 22:43:00,71.0,57.0,-100.00,ENE,75,3.0,6.0,61,0.00,,,0.00,0.000000,,2013-04-05 08:43:00,
2013-04-04 22:52:00,71.0,57.0,-100.00,ENE,75,3.0,6.0,61,0.00,,,0.00,0.000000,,2013-04-05 08:52:00,
2013-04-04 23:02:00,71.0,57.0,-100.00,ENE,75,3.0,6.0,61,0.00,,,0.00,0.000000,,2013-04-05 09:02:00,
2013-04-04 23:12:00,71.0,57.0,-100.00,ENE,75,3.0,6.0,61,0.00,,,0.00,0.000000,,2013-04-05 09:12:00,
2013-04-04 23:21:00,71.0,57.0,-100.00,ENE,75,3.0,6.0,61,0.00,,,0.00,0.000000,,2013-04-05 09:21:00,
2013-04-04 23:22:00,70.0,54.0,-100.00,East,81,3.0,5.0,57,0.00,,,0.00,0.000000,,2013-04-05 09:22:00,
2013-04-04 23:43:00,70.0,54.0,-100.00,East,81,3.0,5.0,57,0.00,,,0.00,0.000000,,2013-04-05 09:43:00,
2013-04-04 23:53:00,70.0,54.0,-100.00,East,81,3.0,5.0,57,0.00,,,0.00,0.000000,,2013-04-05 09:53:00,